createdAt,value
2022-09-17T00:01:22.076Z,3.78
2022-09-17T00:03:52.650Z,4.07
2022-09-17T00:06:20.258Z,6.55
2022-09-17T00:08:47.354Z,8.15
2022-09-17T00:11:17.303Z,5.60
2022-09-17T00:13:44.954Z,6.82
2022-09-17T00:16:12.483Z,11.98
2022-09-17T00:18:43.121Z,8.70
2022-09-17T00:21:20.177Z,8.57
2022-09-17T00:23:47.910Z,9.00
2022-09-17T00:26:14.974Z,10.95
2022-09-17T00:28:45.305Z,7.45
2022-09-17T00:31:12.436Z,7.03
2022-09-17T00:33:39.288Z,8.57
2022-09-17T00:36:07.030Z,10.32
2022-09-17T00:38:34.816Z,11.68
2022-09-17T00:41:03.646Z,12.30
2022-09-17T00:43:39.534Z,8.40
2022-09-17T00:46:18.728Z,7.82
2022-09-17T00:48:46.705Z,10.00
2022-09-17T00:51:17.807Z,10.13
2022-09-17T00:53:44.652Z,9.45
2022-09-17T00:56:21.054Z,9.52
2022-09-17T00:58:48.846Z,6.68
2022-09-17T01:01:15.770Z,9.55
2022-09-17T01:03:42.538Z,13.07
2022-09-17T01:07:03.159Z,13.05
2022-09-17T01:09:49.357Z,11.43
2022-09-17T01:12:29.039Z,9.48
2022-09-17T01:15:10.976Z,6.22
2022-09-17T01:18:09.118Z,8.95
2022-09-17T01:21:13.287Z,9.35
2022-09-17T01:24:17.872Z,10.35
2022-09-17T01:27:02.844Z,10.95
2022-09-17T01:29:55.804Z,5.57
2022-09-17T01:32:48.407Z,11.65
2022-09-17T01:35:49.436Z,8.20
2022-09-17T01:38:34.500Z,10.98
2022-09-17T01:41:08.838Z,7.10
2022-09-17T01:43:50.777Z,4.78
2022-09-17T01:46:27.300Z,9.13
2022-09-17T01:48:58.398Z,10.65
2022-09-17T01:51:28.753Z,7.80
2022-09-17T01:54:04.826Z,7.47
2022-09-17T01:56:38.427Z,9.43
2022-09-17T01:59:14.280Z,10.27
2022-09-17T02:01:43.695Z,6.07
2022-09-17T02:04:20.842Z,11.00
2022-09-17T02:06:53.377Z,12.15
2022-09-17T02:09:27.324Z,12.98
2022-09-17T02:11:58.916Z,15.75
2022-09-17T02:17:03.668Z,21.83
2022-09-17T02:19:38.587Z,17.45
2022-09-17T02:22:11.123Z,20.35
2022-09-17T02:24:51.511Z,19.73
2022-09-17T02:27:36.793Z,24.05
2022-09-17T02:30:04.367Z,18.73
2022-09-17T02:32:31.175Z,19.02
2022-09-17T02:34:57.876Z,22.98
2022-09-17T02:37:24.607Z,21.55
2022-09-17T02:39:51.448Z,19.02
2022-09-17T02:42:38.709Z,18.70
2022-09-17T02:45:30.831Z,19.30
2022-09-17T02:48:12.627Z,16.90
2022-09-17T02:50:51.761Z,15.60
2022-09-17T02:53:24.439Z,23.48
2022-09-17T02:56:14.047Z,20.33
2022-09-17T02:59:06.162Z,17.20
2022-09-17T03:01:38.715Z,18.33
2022-09-17T03:04:09.988Z,23.20
2022-09-17T03:06:38.454Z,24.92
2022-09-17T03:09:05.652Z,32.78
2022-09-17T03:11:32.420Z,25.02
2022-09-17T03:13:59.184Z,25.52
2022-09-17T03:16:25.905Z,23.80
2022-09-17T03:18:54.653Z,21.77
2022-09-17T03:21:21.872Z,24.77
2022-09-17T03:23:48.461Z,35.50
2022-09-17T03:26:15.154Z,25.63
2022-09-17T03:28:41.775Z,26.15
2022-09-17T03:31:08.576Z,22.35
2022-09-17T03:33:35.251Z,30.25
2022-09-17T03:36:02.331Z,25.98
2022-09-17T03:38:29.318Z,27.90
2022-09-17T03:41:05.053Z,26.92
2022-09-17T03:43:31.722Z,21.48
2022-09-17T03:45:58.460Z,31.23
2022-09-17T03:48:25.332Z,29.73
2022-09-17T03:50:52.122Z,24.90
2022-09-17T03:53:18.844Z,22.27
2022-09-17T03:55:45.457Z,26.85
2022-09-17T03:58:12.262Z,22.20
2022-09-17T04:00:38.973Z,25.23
2022-09-17T04:03:06.509Z,31.40
2022-09-17T04:05:33.729Z,29.77
2022-09-17T04:08:00.441Z,30.52
2022-09-17T04:10:27.133Z,28.00
2022-09-17T04:12:53.782Z,28.88
2022-09-17T04:15:20.461Z,21.88
2022-09-17T04:17:47.171Z,26.50
2022-09-17T04:20:14.059Z,25.42
2022-09-17T04:22:40.787Z,23.60
2022-09-17T04:25:08.028Z,34.65
2022-09-17T04:27:34.861Z,34.10
2022-09-17T04:30:01.858Z,24.35
2022-09-17T04:32:28.517Z,23.80
2022-09-17T04:34:55.227Z,23.83
2022-09-17T04:37:21.942Z,30.42
2022-09-17T04:39:48.719Z,24.40
2022-09-17T04:42:16.077Z,29.42
2022-09-17T04:44:42.827Z,30.50
2022-09-17T04:47:09.446Z,26.77
2022-09-17T04:49:36.176Z,26.27
2022-09-17T04:52:05.071Z,22.88
2022-09-17T04:54:32.216Z,25.45
2022-09-17T04:56:59.821Z,20.88
2022-09-17T04:59:26.568Z,19.98
2022-09-17T05:01:53.298Z,33.60
2022-09-17T05:04:19.997Z,24.13
2022-09-17T05:06:46.880Z,30.63
2022-09-17T05:09:14.434Z,28.08
2022-09-17T05:11:41.631Z,24.27
2022-09-17T05:14:08.603Z,19.92
2022-09-17T05:16:35.601Z,24.27
2022-09-17T05:19:02.354Z,21.08
2022-09-17T05:21:29.299Z,23.85
2022-09-17T05:23:55.966Z,21.75
2022-09-17T05:26:22.840Z,26.92
2022-09-17T05:28:49.578Z,28.05
2022-09-17T05:31:16.355Z,23.85
2022-09-17T05:33:43.096Z,22.20
2022-09-17T05:36:09.898Z,21.77
2022-09-17T05:38:36.773Z,19.98
2022-09-17T05:41:06.144Z,29.13
2022-09-17T05:43:33.567Z,28.30
2022-09-17T05:46:04.961Z,20.85
2022-09-17T05:50:59.073Z,19.63
2022-09-17T05:53:25.776Z,18.70
2022-09-17T05:55:57.238Z,26.85
2022-09-17T05:58:24.131Z,22.88
2022-09-17T06:00:51.305Z,20.70
2022-09-17T06:03:19.975Z,22.27
2022-09-17T06:06:00.404Z,16.73
2022-09-17T06:08:28.851Z,26.45
2022-09-17T06:11:00.210Z,18.65
2022-09-17T06:13:29.013Z,17.48
2022-09-17T06:15:55.802Z,20.38
2022-09-17T06:18:22.669Z,18.67
2022-09-17T06:21:01.088Z,18.00
2022-09-17T06:23:31.337Z,20.25
2022-09-17T06:25:59.691Z,19.52
2022-09-17T06:28:27.325Z,17.02
2022-09-17T06:30:57.649Z,22.75
2022-09-17T06:33:24.921Z,18.55
2022-09-17T06:36:09.629Z,18.73
2022-09-17T06:38:39.558Z,19.98
2022-09-17T06:41:06.371Z,18.67
2022-09-17T06:43:35.362Z,20.70
2022-09-17T06:46:05.941Z,19.40
2022-09-17T06:48:34.521Z,17.48
2022-09-17T06:51:10.681Z,16.35
2022-09-17T06:53:38.198Z,10.73
2022-09-17T06:56:07.029Z,18.20
2022-09-17T06:58:37.004Z,15.95
2022-09-17T07:01:05.160Z,12.20
2022-09-17T07:03:32.593Z,14.40
2022-09-17T07:05:59.485Z,14.40
2022-09-17T07:08:26.923Z,15.05
2022-09-17T07:10:57.885Z,12.85
2022-09-17T07:13:25.638Z,13.50
2022-09-17T07:15:54.469Z,11.07
2022-09-17T07:18:21.317Z,13.52
2022-09-17T07:20:54.014Z,12.13
2022-09-17T07:23:25.132Z,10.57
2022-09-17T07:25:53.719Z,9.20
2022-09-17T07:28:21.189Z,17.75
2022-09-17T07:30:48.077Z,16.75
2022-09-17T07:33:16.588Z,15.25
2022-09-17T07:35:43.601Z,15.20
2022-09-17T07:38:10.468Z,15.73
2022-09-17T07:40:37.824Z,18.63
2022-09-17T07:43:04.765Z,17.45
2022-09-17T07:45:31.542Z,22.08
2022-09-17T07:47:58.232Z,14.25
2022-09-17T07:50:25.085Z,21.58
2022-09-17T07:52:51.837Z,16.73
2022-09-17T07:55:18.560Z,15.68
2022-09-17T07:57:51.085Z,13.32
2022-09-17T08:00:17.705Z,15.52
2022-09-17T08:02:44.632Z,14.02
2022-09-17T08:05:11.415Z,16.00
2022-09-17T08:07:38.136Z,15.73
2022-09-17T08:10:05.352Z,19.77
2022-09-17T08:12:32.071Z,18.38
2022-09-17T08:14:58.844Z,17.92
2022-09-17T08:17:25.656Z,20.17
2022-09-17T08:19:52.391Z,18.02
2022-09-17T08:22:19.113Z,18.40
2022-09-17T08:24:45.918Z,18.80
2022-09-17T08:27:12.852Z,18.38
2022-09-17T08:29:39.559Z,18.60
2022-09-17T08:32:06.367Z,19.38
2022-09-17T08:34:33.023Z,20.65
2022-09-17T08:36:59.876Z,18.67
2022-09-17T08:39:26.581Z,20.15
2022-09-17T08:42:20.785Z,18.15
2022-09-17T08:44:49.124Z,24.40
2022-09-17T08:47:31.206Z,17.85
2022-09-17T08:49:59.872Z,19.73
2022-09-17T08:52:46.387Z,17.05
2022-09-17T08:55:25.365Z,17.35
2022-09-17T08:58:05.320Z,15.73
2022-09-17T09:01:07.056Z,15.00
2022-09-17T09:04:03.199Z,15.90
2022-09-17T09:06:35.315Z,13.43
2022-09-17T09:09:07.318Z,17.60
2022-09-17T09:11:34.718Z,21.63
2022-09-17T09:14:13.555Z,15.35
2022-09-17T09:16:45.165Z,14.82
2022-09-17T09:19:30.983Z,15.35
2022-09-17T09:22:21.240Z,20.13
2022-09-17T09:25:14.141Z,19.70
2022-09-17T09:28:16.642Z,17.85
2022-09-17T09:30:51.305Z,16.48
2022-09-17T09:33:22.770Z,17.42
2022-09-17T09:35:49.799Z,17.13
2022-09-17T09:38:30.668Z,20.15
2022-09-17T09:41:21.558Z,16.23
2022-09-17T09:44:04.067Z,20.80
2022-09-17T09:46:59.594Z,17.00
2022-09-17T09:50:01.973Z,26.50
2022-09-17T09:52:40.823Z,17.67
2022-09-17T09:55:29.120Z,14.07
2022-09-17T09:58:31.526Z,16.30
2022-09-17T10:00:58.861Z,17.77
2022-09-17T10:03:32.111Z,20.02
2022-09-17T10:06:03.364Z,15.60
2022-09-17T10:08:35.400Z,19.33
2022-09-17T10:11:05.533Z,21.65
2022-09-17T10:13:37.078Z,10.52
2022-09-17T10:18:55.993Z,12.85
2022-09-17T10:21:32.697Z,15.38
2022-09-17T10:24:00.911Z,16.05
2022-09-17T10:26:31.603Z,9.18
2022-09-17T10:29:02.234Z,17.00
2022-09-17T10:31:48.110Z,14.65
2022-09-17T10:34:25.888Z,12.63
2022-09-17T10:39:29.300Z,11.43
2022-09-17T10:41:58.239Z,17.38
2022-09-17T10:44:27.579Z,13.43
2022-09-17T10:46:55.923Z,13.52
2022-09-17T10:49:40.980Z,9.82
2022-09-17T10:52:12.606Z,12.95
2022-09-17T10:58:08.331Z,14.20
2022-09-17T11:01:05.522Z,14.93
2022-09-17T11:03:59.964Z,11.40
2022-09-17T11:06:54.989Z,16.40
2022-09-17T11:09:51.081Z,10.35
2022-09-17T11:12:42.144Z,15.35
2022-09-17T11:15:39.634Z,14.27
2022-09-17T11:18:31.040Z,15.65
2022-09-17T11:21:09.843Z,10.05
2022-09-17T11:23:54.959Z,13.57
2022-09-17T11:26:39.298Z,9.15
2022-09-17T11:29:25.318Z,14.27
2022-09-17T11:32:19.511Z,13.13
2022-09-17T11:35:17.104Z,9.90
2022-09-17T11:37:59.617Z,15.00
2022-09-17T11:41:02.744Z,10.07
2022-09-17T11:46:27.641Z,13.73
2022-09-17T11:49:11.904Z,8.75
2022-09-17T11:51:45.110Z,4.85
2022-09-17T11:54:24.848Z,8.63
2022-09-17T11:56:54.559Z,4.65
2022-09-17T11:59:40.635Z,11.15
2022-09-17T12:02:28.592Z,4.45
2022-09-17T12:05:06.851Z,4.15
2022-09-17T12:07:48.321Z,4.65
2022-09-17T12:10:35.343Z,3.33
2022-09-17T12:13:18.958Z,2.80
2022-09-17T12:15:53.189Z,4.25
2022-09-17T12:18:35.554Z,5.60
2022-09-17T12:21:07.029Z,10.40
2022-09-17T12:23:43.549Z,10.85
2022-09-17T12:26:33.267Z,10.05
2022-09-17T12:29:15.449Z,5.18
2022-09-17T12:31:52.950Z,10.80
2022-09-17T12:34:53.769Z,12.85
2022-09-17T12:37:43.387Z,11.10
2022-09-17T12:40:34.460Z,7.57
2022-09-17T12:43:12.889Z,9.38
2022-09-17T12:45:50.480Z,13.02
2022-09-17T12:48:35.624Z,6.25
2022-09-17T12:51:43.975Z,8.27
2022-09-17T12:54:48.371Z,7.60
2022-09-17T12:57:42.560Z,12.20
2022-09-17T13:00:13.229Z,11.95
2022-09-17T13:02:55.990Z,13.52
2022-09-17T13:05:49.901Z,9.52
2022-09-17T13:08:28.733Z,7.72
2022-09-17T13:11:20.133Z,9.20
2022-09-17T13:14:23.567Z,9.38
2022-09-17T13:16:57.255Z,7.97
2022-09-17T13:19:59.567Z,5.50
2022-09-17T13:22:45.236Z,5.25
2022-09-17T13:25:15.436Z,6.03
2022-09-17T13:27:42.998Z,8.95
2022-09-17T13:30:11.551Z,6.60
2022-09-17T13:32:41.506Z,7.90
2022-09-17T13:35:09.424Z,9.45
2022-09-17T13:37:39.593Z,10.35
2022-09-17T13:40:27.767Z,8.73
2022-09-17T13:42:59.267Z,11.55
2022-09-17T13:45:26.664Z,9.18
2022-09-17T13:48:00.294Z,7.65
2022-09-17T13:50:35.056Z,8.35
2022-09-17T13:53:16.886Z,6.93
2022-09-17T13:55:48.172Z,8.43
2022-09-17T13:58:20.848Z,7.43
2022-09-17T14:01:13.269Z,7.53
2022-09-17T14:03:46.522Z,9.73
2022-09-17T14:06:18.045Z,7.60
2022-09-17T14:11:32.555Z,8.90
2022-09-17T14:14:05.173Z,8.20
2022-09-17T14:16:42.659Z,10.23
2022-09-17T14:19:15.762Z,8.35
2022-09-17T14:21:46.327Z,7.88
2022-09-17T14:24:32.159Z,9.77
2022-09-17T14:27:17.533Z,7.80
2022-09-17T14:30:07.002Z,7.15
2022-09-17T14:32:54.051Z,2.35
2022-09-17T14:35:23.150Z,2.92
2022-09-17T14:38:09.283Z,3.55
2022-09-17T14:40:42.138Z,3.58
2022-09-17T14:43:38.040Z,2.65
2022-09-17T14:46:07.050Z,3.65
2022-09-17T14:48:35.072Z,4.60
2022-09-17T14:51:19.834Z,2.17
2022-09-17T14:53:48.115Z,9.65
2022-09-17T14:56:20.693Z,3.15
2022-09-17T14:58:50.065Z,1.02
2022-09-17T15:01:25.667Z,1.10
2022-09-17T15:04:14.323Z,2.45
2022-09-17T15:06:42.858Z,3.30
2022-09-17T15:09:26.191Z,1.58
2022-09-17T15:11:55.659Z,2.28
2022-09-17T15:14:34.861Z,1.83
2022-09-17T15:17:03.758Z,2.50
2022-09-17T15:19:36.536Z,0.85
2022-09-17T15:22:09.920Z,1.13
2022-09-17T15:25:25.517Z,3.47
2022-09-17T15:27:58.372Z,3.60
2022-09-17T15:30:26.098Z,2.45
2022-09-17T15:32:58.402Z,1.20
2022-09-17T15:35:34.631Z,2.38
2022-09-17T15:38:22.149Z,2.65
2022-09-17T15:40:49.800Z,2.25
2022-09-17T15:43:25.804Z,5.68
2022-09-17T15:45:53.079Z,1.35
2022-09-17T15:48:39.561Z,3.03
2022-09-17T15:51:22.688Z,2.65
2022-09-17T15:53:55.412Z,4.50
2022-09-17T15:56:29.130Z,2.50
2022-09-17T15:59:23.198Z,2.72
2022-09-17T16:01:53.279Z,3.60
2022-09-17T16:04:32.020Z,3.67
2022-09-17T16:06:58.651Z,2.88
2022-09-17T16:09:43.655Z,4.07
2022-09-17T16:12:13.699Z,3.38
2022-09-17T16:14:44.280Z,3.22
2022-09-17T16:17:37.202Z,3.78
2022-09-17T16:20:24.408Z,2.33
2022-09-17T16:22:52.466Z,3.78
2022-09-17T16:25:26.751Z,2.95
2022-09-17T16:28:00.927Z,2.60
2022-09-17T16:30:27.893Z,3.28
2022-09-17T16:32:54.707Z,4.45
2022-09-17T16:35:24.912Z,4.90
2022-09-17T16:37:53.535Z,6.85
2022-09-17T16:40:22.458Z,5.93
2022-09-17T16:42:49.319Z,7.13
2022-09-17T16:45:16.495Z,4.40
2022-09-17T16:47:43.389Z,4.93
2022-09-17T16:50:15.675Z,6.68
2022-09-17T16:52:42.614Z,4.10
2022-09-17T16:55:09.865Z,5.25
2022-09-17T16:57:36.527Z,5.50
2022-09-17T17:00:06.169Z,5.78
2022-09-17T17:02:32.845Z,4.90
2022-09-17T17:04:59.669Z,5.90
2022-09-17T17:07:26.394Z,4.40
2022-09-17T17:09:53.617Z,5.25
2022-09-17T17:12:20.274Z,3.13
2022-09-17T17:14:50.028Z,4.25
2022-09-17T17:17:18.221Z,3.33
2022-09-17T17:19:46.544Z,5.63
2022-09-17T17:22:16.299Z,4.28
2022-09-17T17:24:43.091Z,2.58
2022-09-17T17:27:09.785Z,5.45
2022-09-17T17:29:37.202Z,2.95
2022-09-17T17:32:05.215Z,3.78
2022-09-17T17:34:32.197Z,4.38
2022-09-17T17:36:59.041Z,3.47
2022-09-17T17:39:25.844Z,3.83
2022-09-17T17:41:54.614Z,4.03
2022-09-17T17:44:21.710Z,4.45
2022-09-17T17:46:48.645Z,3.15
2022-09-17T17:49:15.424Z,4.38
2022-09-17T17:51:42.071Z,5.95
2022-09-17T17:54:08.870Z,6.22
2022-09-17T17:56:35.595Z,5.97
2022-09-17T17:59:02.502Z,5.00
2022-09-17T18:01:30.864Z,4.63
2022-09-17T18:04:00.515Z,5.35
2022-09-17T18:06:27.978Z,4.13
2022-09-17T18:08:55.653Z,3.53
2022-09-17T18:11:23.694Z,3.33
2022-09-17T18:13:55.185Z,2.97
2022-09-17T18:16:22.660Z,3.83
2022-09-17T18:18:49.915Z,5.82
2022-09-17T18:21:22.525Z,6.70
2022-09-17T18:23:50.472Z,2.40
2022-09-17T18:26:25.803Z,7.00
2022-09-17T18:28:53.138Z,3.38
2022-09-17T18:31:26.443Z,4.45
2022-09-17T18:34:01.805Z,4.57
2022-09-17T18:36:31.526Z,3.42
2022-09-17T18:39:24.175Z,4.03
2022-09-17T18:41:51.688Z,5.10
2022-09-17T18:44:21.467Z,2.50
2022-09-17T18:46:49.982Z,4.35
2022-09-17T18:49:17.206Z,3.60
2022-09-17T18:51:44.132Z,4.35
2022-09-17T18:54:12.774Z,7.43
2022-09-17T18:56:41.479Z,2.20
2022-09-17T18:59:08.823Z,3.85
2022-09-17T19:01:36.051Z,4.53
2022-09-17T19:04:03.699Z,6.05
2022-09-17T19:06:32.213Z,2.13
2022-09-17T19:09:04.091Z,4.10
2022-09-17T19:13:57.774Z,2.80
2022-09-17T19:16:24.969Z,2.22
2022-09-17T19:18:51.866Z,2.53
2022-09-17T19:21:21.520Z,1.52
2022-09-17T19:23:51.204Z,1.92
2022-09-17T19:26:27.541Z,2.50
2022-09-17T19:28:57.471Z,1.90
2022-09-17T19:31:24.519Z,2.05
2022-09-17T19:33:51.667Z,2.58
2022-09-17T19:36:19.536Z,4.07
2022-09-17T19:38:47.078Z,1.75
2022-09-17T19:41:16.318Z,2.42
2022-09-17T19:43:45.046Z,1.27
2022-09-17T19:46:14.394Z,1.42
2022-09-17T19:48:46.231Z,4.43
2022-09-17T19:51:13.196Z,2.58
2022-09-17T19:53:40.302Z,0.63
2022-09-17T19:56:10.806Z,2.42
2022-09-17T19:58:37.555Z,0.90
2022-09-17T20:01:04.484Z,2.15
2022-09-17T20:03:31.196Z,1.52
2022-09-17T20:06:03.045Z,2.05
2022-09-17T20:08:29.837Z,2.92
2022-09-17T20:11:05.419Z,1.98
2022-09-17T20:13:32.256Z,2.80
2022-09-17T20:16:17.069Z,2.58
2022-09-17T20:18:44.284Z,2.33
2022-09-17T20:21:16.788Z,3.60
2022-09-17T20:23:43.710Z,4.18
2022-09-17T20:26:12.274Z,0.98
2022-09-17T20:28:39.840Z,2.28
2022-09-17T20:31:18.726Z,3.10
2022-09-17T20:33:46.694Z,3.15
2022-09-17T20:36:16.541Z,3.63
2022-09-17T20:41:35.017Z,2.40
2022-09-17T20:44:01.832Z,1.33
2022-09-17T20:46:29.693Z,2.97
2022-09-17T20:48:58.152Z,4.47
2022-09-17T20:51:28.501Z,2.67
2022-09-17T20:53:57.069Z,1.02
2022-09-17T20:56:29.464Z,2.75
2022-09-17T20:59:08.185Z,2.45
2022-09-17T21:01:37.422Z,1.60
2022-09-17T21:04:06.932Z,1.90
2022-09-17T21:06:37.026Z,2.28
2022-09-17T21:09:05.782Z,4.30
2022-09-17T21:11:32.433Z,2.33
2022-09-17T21:14:00.433Z,3.25
2022-09-17T21:16:28.414Z,2.75
2022-09-17T21:18:57.967Z,1.85
2022-09-17T21:21:25.461Z,2.67
2022-09-17T21:23:52.679Z,3.55
2022-09-17T21:26:21.834Z,1.30
2022-09-17T21:28:50.397Z,3.30
2022-09-17T21:31:32.450Z,2.50
2022-09-17T21:34:05.766Z,2.67
2022-09-17T21:36:35.156Z,0.73
2022-09-17T21:39:10.130Z,1.00
2022-09-17T21:41:42.119Z,2.67
2022-09-17T21:44:10.720Z,1.58
2022-09-17T21:46:37.990Z,1.08
2022-09-17T21:49:05.733Z,1.25
2022-09-17T21:51:41.072Z,2.05
2022-09-17T21:54:10.281Z,2.42
2022-09-17T21:56:37.504Z,3.38
2022-09-17T21:59:06.804Z,0.40
2022-09-17T22:01:40.176Z,1.75
2022-09-17T22:04:10.995Z,1.50
2022-09-17T22:06:38.215Z,1.08
2022-09-17T22:09:06.388Z,2.95
2022-09-17T22:11:36.063Z,3.20
2022-09-17T22:14:08.828Z,1.15
2022-09-17T22:16:39.374Z,1.98
2022-09-17T22:19:07.229Z,2.75
2022-09-17T22:21:36.564Z,1.70
2022-09-17T22:24:05.112Z,3.50
2022-09-17T22:26:36.955Z,6.60
2022-09-17T22:29:06.161Z,4.40
2022-09-17T22:31:33.325Z,11.02
2022-09-17T22:34:00.906Z,2.22
2022-09-17T22:36:28.730Z,4.70
2022-09-17T22:38:57.395Z,3.85
2022-09-17T22:41:32.105Z,7.30
2022-09-17T22:44:06.937Z,6.03
2022-09-17T22:46:36.485Z,2.97
2022-09-17T22:49:03.310Z,3.40
2022-09-17T22:51:30.939Z,4.03
2022-09-17T22:53:58.935Z,4.63
2022-09-17T22:56:27.412Z,5.45
2022-09-17T22:58:55.386Z,5.65
2022-09-17T23:01:25.354Z,3.17
2022-09-17T23:03:52.687Z,4.55
2022-09-17T23:06:22.144Z,5.65
2022-09-17T23:08:48.925Z,5.72
2022-09-17T23:11:26.255Z,9.80
2022-09-17T23:13:54.874Z,9.13
2022-09-17T23:16:21.632Z,7.13
2022-09-17T23:18:48.375Z,7.75
2022-09-17T23:21:17.775Z,6.85
2022-09-17T23:23:47.492Z,6.88
2022-09-17T23:26:19.660Z,5.38
2022-09-17T23:28:47.671Z,5.82
2022-09-17T23:31:20.395Z,6.88
2022-09-17T23:33:48.409Z,8.98
2022-09-17T23:36:19.416Z,9.80
2022-09-17T23:38:47.116Z,5.80
2022-09-17T23:41:15.297Z,4.85
2022-09-17T23:43:43.595Z,6.82
2022-09-17T23:46:10.764Z,6.15
2022-09-17T23:48:38.079Z,8.57
2022-09-17T23:51:05.728Z,6.45
2022-09-17T23:53:34.830Z,8.07
2022-09-17T23:56:02.667Z,11.73
2022-09-17T23:58:33.179Z,7.72
